sensor_id;sensor_type;location;lat;lon;timestamp;pressure;altitude;pressure_sealevel;temperature;humidity
10881;BME280;5493;48.884;8.338;2023-04-01T00:01:35;98855.66;;;11.54;100.00
10881;BME280;5493;48.884;8.338;2023-04-01T00:04:01;98851.88;;;11.55;100.00
10881;BME280;5493;48.884;8.338;2023-04-01T00:06:28;98848.41;;;11.59;100.00
10881;BME280;5493;48.884;8.338;2023-04-01T00:08:55;98848.25;;;11.76;100.00
10881;BME280;5493;48.884;8.338;2023-04-01T00:11:22;98848.00;;;11.41;100.00
10881;BME280;5493;48.884;8.338;2023-04-01T00:13:48;98840.44;;;11.38;100.00
10881;BME280;5493;48.884;8.338;2023-04-01T00:16:15;98856.38;;;11.81;100.00
10881;BME280;5493;48.884;8.338;2023-04-01T00:18:43;98848.06;;;11.46;100.00
10881;BME280;5493;48.884;8.338;2023-04-01T00:21:12;98838.91;;;11.52;100.00
10881;BME280;5493;48.884;8.338;2023-04-01T00:23:38;98850.75;;;11.46;100.00
10881;BME280;5493;48.884;8.338;2023-04-01T00:26:05;98853.41;;;11.41;100.00
10881;BME280;5493;48.884;8.338;2023-04-01T00:28:34;98848.75;;;11.31;100.00
10881;BME280;5493;48.884;8.338;2023-04-01T00:31:04;98862.34;;;11.46;100.00
10881;BME280;5493;48.884;8.338;2023-04-01T00:33:31;98844.00;;;11.48;100.00
10881;BME280;5493;48.884;8.338;2023-04-01T00:36:07;98847.75;;;11.42;100.00
10881;BME280;5493;48.884;8.338;2023-04-01T00:38:34;98842.41;;;11.52;100.00
10881;BME280;5493;48.884;8.338;2023-04-01T00:41:01;98845.06;;;11.47;100.00
10881;BME280;5493;48.884;8.338;2023-04-01T00:43:27;98846.47;;;11.55;100.00
10881;BME280;5493;48.884;8.338;2023-04-01T00:45:54;98850.28;;;11.54;100.00
10881;BME280;5493;48.884;8.338;2023-04-01T00:48:23;98852.44;;;11.57;100.00
10881;BME280;5493;48.884;8.338;2023-04-01T00:50:54;98857.97;;;11.40;100.00
10881;BME280;5493;48.884;8.338;2023-04-01T00:53:24;98859.94;;;11.50;100.00
10881;BME280;5493;48.884;8.338;2023-04-01T00:55:55;98843.47;;;11.46;100.00
10881;BME280;5493;48.884;8.338;2023-04-01T00:58:24;98852.19;;;11.63;100.00
10881;BME280;5493;48.884;8.338;2023-04-01T01:00:54;98839.31;;;11.28;100.00
10881;BME280;5493;48.884;8.338;2023-04-01T01:03:21;98854.25;;;11.46;100.00
10881;BME280;5493;48.884;8.338;2023-04-01T01:06:03;98839.19;;;11.50;100.00
10881;BME280;5493;48.884;8.338;2023-04-01T01:11:26;98826.41;;;11.41;100.00
10881;BME280;5493;48.884;8.338;2023-04-01T01:13:58;98844.53;;;11.45;100.00
10881;BME280;5493;48.884;8.338;2023-04-01T01:16:30;98846.00;;;11.26;100.00
10881;BME280;5493;48.884;8.338;2023-04-01T01:19:04;98838.75;;;11.26;100.00
10881;BME280;5493;48.884;8.338;2023-04-01T01:21:53;98836.00;;;11.21;100.00
10881;BME280;5493;48.884;8.338;2023-04-01T01:24:49;98825.63;;;11.03;100.00
10881;BME280;5493;48.884;8.338;2023-04-01T01:27:20;98837.97;;;11.31;100.00
10881;BME280;5493;48.884;8.338;2023-04-01T01:30:11;98830.47;;;11.38;100.00
10881;BME280;5493;48.884;8.338;2023-04-01T01:32:55;98824.88;;;11.13;100.00
10881;BME280;5493;48.884;8.338;2023-04-01T01:35:30;98824.88;;;11.13;100.00
10881;BME280;5493;48.884;8.338;2023-04-01T01:38:01;98843.59;;;11.29;100.00
10881;BME280;5493;48.884;8.338;2023-04-01T01:40:31;98827.66;;;11.23;100.00
10881;BME280;5493;48.884;8.338;2023-04-01T01:43:01;98824.06;;;11.12;100.00
10881;BME280;5493;48.884;8.338;2023-04-01T01:45:32;98826.47;;;11.51;100.00
10881;BME280;5493;48.884;8.338;2023-04-01T01:48:00;98813.00;;;11.09;100.00
10881;BME280;5493;48.884;8.338;2023-04-01T01:50:29;98827.34;;;11.19;100.00
10881;BME280;5493;48.884;8.338;2023-04-01T01:53:02;98822.81;;;11.25;100.00
10881;BME280;5493;48.884;8.338;2023-04-01T01:55:30;98829.59;;;11.27;100.00
10881;BME280;5493;48.884;8.338;2023-04-01T01:57:59;98816.31;;;11.21;100.00
10881;BME280;5493;48.884;8.338;2023-04-01T02:00:27;98810.88;;;11.16;100.00
10881;BME280;5493;48.884;8.338;2023-04-01T02:02:56;98819.03;;;11.21;100.00
10881;BME280;5493;48.884;8.338;2023-04-01T02:05:25;98816.63;;;11.29;100.00
10881;BME280;5493;48.884;8.338;2023-04-01T02:08:01;98808.00;;;11.27;100.00
10881;BME280;5493;48.884;8.338;2023-04-01T02:10:31;98820.97;;;11.30;100.00
10881;BME280;5493;48.884;8.338;2023-04-01T02:13:02;98832.53;;;11.26;100.00
10881;BME280;5493;48.884;8.338;2023-04-01T02:15:35;98823.84;;;11.19;100.00
10881;BME280;5493;48.884;8.338;2023-04-01T02:18:04;98806.59;;;11.20;100.00
10881;BME280;5493;48.884;8.338;2023-04-01T02:20:32;98810.88;;;11.16;100.00
10881;BME280;5493;48.884;8.338;2023-04-01T02:23:00;98813.41;;;11.27;100.00
10881;BME280;5493;48.884;8.338;2023-04-01T02:25:30;98795.16;;;11.08;100.00
10881;BME280;5493;48.884;8.338;2023-04-01T02:28:00;98808.00;;;11.27;100.00
10881;BME280;5493;48.884;8.338;2023-04-01T02:30:29;98793.81;;;11.05;100.00
10881;BME280;5493;48.884;8.338;2023-04-01T02:32:56;98808.00;;;11.27;100.00
10881;BME280;5493;48.884;8.338;2023-04-01T02:35:24;98810.81;;;11.06;100.00
10881;BME280;5493;48.884;8.338;2023-04-01T02:37:53;98783.09;;;11.15;100.00
10881;BME280;5493;48.884;8.338;2023-04-01T02:40:21;98801.66;;;11.07;100.00
10881;BME280;5493;48.884;8.338;2023-04-01T02:42:48;98812.53;;;11.22;100.00
10881;BME280;5493;48.884;8.338;2023-04-01T02:45:14;98818.03;;;11.32;100.00
10881;BME280;5493;48.884;8.338;2023-04-01T02:47:41;98817.63;;;11.18;100.00
10881;BME280;5493;48.884;8.338;2023-04-01T02:50:08;98823.94;;;11.34;100.00
10881;BME280;5493;48.884;8.338;2023-04-01T02:52:35;98821.84;;;11.41;100.00
10881;BME280;5493;48.884;8.338;2023-04-01T02:55:02;98812.56;;;11.27;100.00
10881;BME280;5493;48.884;8.338;2023-04-01T02:57:30;98819.78;;;11.16;100.00
10881;BME280;5493;48.884;8.338;2023-04-01T02:59:56;98810.03;;;11.10;100.00
10881;BME280;5493;48.884;8.338;2023-04-01T03:02:23;98816.13;;;10.96;100.00
10881;BME280;5493;48.884;8.338;2023-04-01T03:04:49;98807.59;;;11.09;100.00
10881;BME280;5493;48.884;8.338;2023-04-01T03:07:15;98820.97;;;11.30;100.00
10881;BME280;5493;48.884;8.338;2023-04-01T03:09:42;98814.06;;;11.08;100.00
10881;BME280;5493;48.884;8.338;2023-04-01T03:12:09;98815.03;;;10.97;100.00
10881;BME280;5493;48.884;8.338;2023-04-01T03:14:36;98823.91;;;11.29;100.00
10881;BME280;5493;48.884;8.338;2023-04-01T03:17:03;98802.31;;;11.24;100.00
10881;BME280;5493;48.884;8.338;2023-04-01T03:19:30;98812.88;;;11.30;100.00
10881;BME280;5493;48.884;8.338;2023-04-01T03:21:57;98813.34;;;11.17;100.00
10881;BME280;5493;48.884;8.338;2023-04-01T03:24:23;98799.34;;;11.25;100.00
10881;BME280;5493;48.884;8.338;2023-04-01T03:26:50;98805.53;;;11.21;100.00
10881;BME280;5493;48.884;8.338;2023-04-01T03:29:16;98806.59;;;11.20;100.00
10881;BME280;5493;48.884;8.338;2023-04-01T03:31:44;98806.59;;;11.20;100.00
10881;BME280;5493;48.884;8.338;2023-04-01T03:34:11;98806.25;;;11.11;100.00
10881;BME280;5493;48.884;8.338;2023-04-01T03:36:37;98810.34;;;11.19;100.00
10881;BME280;5493;48.884;8.338;2023-04-01T03:39:04;98805.94;;;11.03;100.00
10881;BME280;5493;48.884;8.338;2023-04-01T03:41:32;98803.44;;;11.33;100.00
10881;BME280;5493;48.884;8.338;2023-04-01T03:43:58;98793.72;;;11.32;100.00
10881;BME280;5493;48.884;8.338;2023-04-01T03:46:25;98811.81;;;11.31;100.00
10881;BME280;5493;48.884;8.338;2023-04-01T03:48:53;98781.72;;;11.13;100.00
10881;BME280;5493;48.884;8.338;2023-04-01T03:51:19;98775.84;;;11.21;100.00
10881;BME280;5493;48.884;8.338;2023-04-01T03:53:46;98809.00;;;11.16;100.00
10881;BME280;5493;48.884;8.338;2023-04-01T03:56:12;98796.16;;;11.33;100.00
10881;BME280;5493;48.884;8.338;2023-04-01T03:58:39;98786.47;;;11.38;100.00
10881;BME280;5493;48.884;8.338;2023-04-01T04:01:14;98808.78;;;11.23;100.00
10881;BME280;5493;48.884;8.338;2023-04-01T04:03:41;98781.53;;;11.24;100.00
10881;BME280;5493;48.884;8.338;2023-04-01T04:06:12;98793.44;;;11.28;100.00
10881;BME280;5493;48.884;8.338;2023-04-01T04:08:38;98795.69;;;11.47;100.00
10881;BME280;5493;48.884;8.338;2023-04-01T04:11:05;98783.19;;;11.30;100.00
10881;BME280;5493;48.884;8.338;2023-04-01T04:13:31;98786.53;;;11.48;100.00
10881;BME280;5493;48.884;8.338;2023-04-01T04:15:58;98792.19;;;11.46;100.00
10881;BME280;5493;48.884;8.338;2023-04-01T04:18:24;98790.31;;;11.52;100.00
10881;BME280;5493;48.884;8.338;2023-04-01T04:20:51;98795.41;;;11.43;100.00
10881;BME280;5493;48.884;8.338;2023-04-01T04:23:19;98794.59;;;11.43;100.00
10881;BME280;5493;48.884;8.338;2023-04-01T04:25:53;98783.19;;;11.30;100.00
10881;BME280;5493;48.884;8.338;2023-04-01T04:28:20;98790.00;;;11.43;100.00
10881;BME280;5493;48.884;8.338;2023-04-01T04:30:46;98791.53;;;11.29;100.00
10881;BME280;5493;48.884;8.338;2023-04-01T04:33:13;98791.94;;;11.53;100.00
10881;BME280;5493;48.884;8.338;2023-04-01T04:35:39;98797.94;;;11.60;100.00
10881;BME280;5493;48.884;8.338;2023-04-01T04:38:06;98776.78;;;11.47;100.00
10881;BME280;5493;48.884;8.338;2023-04-01T04:40:35;98772.50;;;11.51;100.00
10881;BME280;5493;48.884;8.338;2023-04-01T04:43:02;98783.78;;;11.38;100.00
10881;BME280;5493;48.884;8.338;2023-04-01T04:45:28;98778.69;;;11.46;100.00
10881;BME280;5493;48.884;8.338;2023-04-01T04:47:55;98762.16;;;11.32;100.00
10881;BME280;5493;48.884;8.338;2023-04-01T04:50:22;98773.19;;;11.26;100.00
10881;BME280;5493;48.884;8.338;2023-04-01T04:52:49;98770.28;;;11.38;100.00
10881;BME280;5493;48.884;8.338;2023-04-01T04:55:16;98760.00;;;11.34;100.00
10881;BME280;5493;48.884;8.338;2023-04-01T04:57:44;98753.56;;;11.35;100.00
10881;BME280;5493;48.884;8.338;2023-04-01T05:00:11;98770.00;;;11.34;100.00
10881;BME280;5493;48.884;8.338;2023-04-01T05:02:37;98742.97;;;11.24;100.00
10881;BME280;5493;48.884;8.338;2023-04-01T05:05:05;98769.94;;;11.29;100.00
10881;BME280;5493;48.884;8.338;2023-04-01T05:07:33;98763.28;;;11.42;100.00
10881;BME280;5493;48.884;8.338;2023-04-01T05:09:59;98767.78;;;11.26;100.00
10881;BME280;5493;48.884;8.338;2023-04-01T05:12:26;98747.06;;;11.36;100.00
10881;BME280;5493;48.884;8.338;2023-04-01T05:14:54;98768.66;;;11.36;100.00
10881;BME280;5493;48.884;8.338;2023-04-01T05:17:20;98750.63;;;11.42;100.00
10881;BME280;5493;48.884;8.338;2023-04-01T05:19:47;98761.91;;;11.34;100.00
10881;BME280;5493;48.884;8.338;2023-04-01T05:22:13;98765.72;;;11.43;100.00
10881;BME280;5493;48.884;8.338;2023-04-01T05:24:40;98751.22;;;11.59;100.00
10881;BME280;5493;48.884;8.338;2023-04-01T05:27:06;98755.50;;;11.50;100.00
10881;BME280;5493;48.884;8.338;2023-04-01T05:29:33;98738.81;;;11.06;100.00
10881;BME280;5493;48.884;8.338;2023-04-01T05:32:01;98759.97;;;11.24;100.00
10881;BME280;5493;48.884;8.338;2023-04-01T05:34:28;98767.53;;;11.27;100.00
10881;BME280;5493;48.884;8.338;2023-04-01T05:36:54;98766.09;;;11.15;100.00
10881;BME280;5493;48.884;8.338;2023-04-01T05:39:21;98766.59;;;11.07;100.00
10881;BME280;5493;48.884;8.338;2023-04-01T05:41:48;98750.38;;;11.02;100.00
10881;BME280;5493;48.884;8.338;2023-04-01T05:44:15;98771.72;;;11.08;100.00
10881;BME280;5493;48.884;8.338;2023-04-01T05:46:42;98713.59;;;10.85;100.00
10881;BME280;5493;48.884;8.338;2023-04-01T05:49:09;98763.31;;;10.63;100.00
10881;BME280;5493;48.884;8.338;2023-04-01T05:51:36;98786.38;;;10.85;100.00
10881;BME280;5493;48.884;8.338;2023-04-01T05:54:04;98758.72;;;10.63;100.00
10881;BME280;5493;48.884;8.338;2023-04-01T05:56:30;98773.81;;;10.64;100.00
10881;BME280;5493;48.884;8.338;2023-04-01T05:58:57;98769.59;;;10.42;100.00
10881;BME280;5493;48.884;8.338;2023-04-01T06:01:23;98775.97;;;10.67;100.00
10881;BME280;5493;48.884;8.338;2023-04-01T06:03:50;98772.13;;;10.26;100.00
10881;BME280;5493;48.884;8.338;2023-04-01T06:06:23;98780.47;;;10.57;100.00
10881;BME280;5493;48.884;8.338;2023-04-01T06:08:50;98768.66;;;10.31;100.00
10881;BME280;5493;48.884;8.338;2023-04-01T06:11:23;98741.91;;;10.19;100.00
10881;BME280;5493;48.884;8.338;2023-04-01T06:14:06;98775.16;;;10.35;100.00
10881;BME280;5493;48.884;8.338;2023-04-01T06:16:42;98775.22;;;10.40;100.00
10881;BME280;5493;48.884;8.338;2023-04-01T06:19:21;98782.53;;;10.45;100.00
10881;BME280;5493;48.884;8.338;2023-04-01T06:22:10;98779.84;;;10.45;100.00
10881;BME280;5493;48.884;8.338;2023-04-01T06:24:48;98781.06;;;10.59;100.00
10881;BME280;5493;48.884;8.338;2023-04-01T06:27:29;98760.75;;;10.19;100.00
10881;BME280;5493;48.884;8.338;2023-04-01T06:30:08;98768.34;;;10.27;100.00
10881;BME280;5493;48.884;8.338;2023-04-01T06:32:55;98792.44;;;10.39;100.00
10881;BME280;5493;48.884;8.338;2023-04-01T06:35:34;98788.19;;;10.16;100.00
10881;BME280;5493;48.884;8.338;2023-04-01T06:38:21;98803.81;;;10.46;100.00
10881;BME280;5493;48.884;8.338;2023-04-01T06:41:11;98799.56;;;10.23;100.00
10881;BME280;5493;48.884;8.338;2023-04-01T06:43:50;98804.25;;;10.33;100.00
10881;BME280;5493;48.884;8.338;2023-04-01T06:46:24;98809.72;;;10.16;100.00
10881;BME280;5493;48.884;8.338;2023-04-01T06:49:08;98813.53;;;10.20;100.00
10881;BME280;5493;48.884;8.338;2023-04-01T06:51:43;98812.25;;;10.28;100.00
10881;BME280;5493;48.884;8.338;2023-04-01T06:54:16;98806.47;;;10.14;100.00
10881;BME280;5493;48.884;8.338;2023-04-01T06:56:45;98817.81;;;10.16;100.00
10881;BME280;5493;48.884;8.338;2023-04-01T06:59:17;98810.13;;;10.30;100.00
10881;BME280;5493;48.884;8.338;2023-04-01T07:01:47;98817.47;;;10.34;100.00
10881;BME280;5493;48.884;8.338;2023-04-01T07:04:19;98801.03;;;10.36;100.00
10881;BME280;5493;48.884;8.338;2023-04-01T07:06:52;98814.84;;;10.18;100.00
10881;BME280;5493;48.884;8.338;2023-04-01T07:09:24;98815.25;;;10.31;100.00
10881;BME280;5493;48.884;8.338;2023-04-01T07:11:54;98807.13;;;10.26;100.00
10881;BME280;5493;48.884;8.338;2023-04-01T07:14:26;98802.25;;;10.23;100.00
10881;BME280;5493;48.884;8.338;2023-04-01T07:16:59;98817.13;;;10.31;100.00
10881;BME280;5493;48.884;8.338;2023-04-01T07:19:32;98821.69;;;10.52;100.00
10881;BME280;5493;48.884;8.338;2023-04-01T07:22:05;98823.81;;;10.23;100.00
10881;BME280;5493;48.884;8.338;2023-04-01T07:24:36;98834.91;;;10.27;100.00
10881;BME280;5493;48.884;8.338;2023-04-01T07:27:05;98826.97;;;9.99;100.00
10881;BME280;5493;48.884;8.338;2023-04-01T07:29:35;98834.41;;;10.13;100.00
10881;BME280;5493;48.884;8.338;2023-04-01T07:32:18;98844.72;;;10.38;100.00
10881;BME280;5493;48.884;8.338;2023-04-01T07:34:54;98852.28;;;10.41;100.00
10881;BME280;5493;48.884;8.338;2023-04-01T07:37:28;98835.94;;;10.26;100.00
10881;BME280;5493;48.884;8.338;2023-04-01T07:40:07;98857.41;;;10.43;100.00
10881;BME280;5493;48.884;8.338;2023-04-01T07:42:45;98848.06;;;10.23;100.00
10881;BME280;5493;48.884;8.338;2023-04-01T07:45:21;98875.19;;;9.78;100.00
10881;BME280;5493;48.884;8.338;2023-04-01T07:48:01;98872.94;;;9.92;100.00
10881;BME280;5493;48.884;8.338;2023-04-01T07:50:34;98861.34;;;9.92;100.00
10881;BME280;5493;48.884;8.338;2023-04-01T07:53:09;98865.56;;;10.04;100.00
10881;BME280;5493;48.884;8.338;2023-04-01T07:55:46;98861.84;;;9.88;100.00
10881;BME280;5493;48.884;8.338;2023-04-01T07:58:22;98857.53;;;9.87;100.00
10881;BME280;5493;48.884;8.338;2023-04-01T08:00:59;98858.81;;;9.80;100.00
10881;BME280;5493;48.884;8.338;2023-04-01T08:03:38;98849.28;;;9.72;100.00
10881;BME280;5493;48.884;8.338;2023-04-01T08:06:14;98862.16;;;9.70;100.00
10881;BME280;5493;48.884;8.338;2023-04-01T08:08:55;98837.69;;;9.94;100.00
10881;BME280;5493;48.884;8.338;2023-04-01T08:11:37;98847.97;;;10.18;100.00
10881;BME280;5493;48.884;8.338;2023-04-01T08:14:12;98837.53;;;10.22;100.00
10881;BME280;5493;48.884;8.338;2023-04-01T08:16:46;98853.34;;;10.40;100.00
10881;BME280;5493;48.884;8.338;2023-04-01T08:19:21;98854.06;;;10.30;100.00
10881;BME280;5493;48.884;8.338;2023-04-01T08:21:56;98839.03;;;10.34;100.00
10881;BME280;5493;48.884;8.338;2023-04-01T08:24:29;98856.59;;;10.20;100.00
10881;BME280;5493;48.884;8.338;2023-04-01T08:27:03;98863.59;;;10.43;100.00
10881;BME280;5493;48.884;8.338;2023-04-01T08:29:36;98863.63;;;10.21;100.00
10881;BME280;5493;48.884;8.338;2023-04-01T08:32:08;98876.25;;;10.43;100.00
10881;BME280;5493;48.884;8.338;2023-04-01T08:34:39;98881.59;;;10.64;100.00
10881;BME280;5493;48.884;8.338;2023-04-01T08:37:09;98864.59;;;10.59;100.00
10881;BME280;5493;48.884;8.338;2023-04-01T08:39:41;98882.19;;;10.66;100.00
10881;BME280;5493;48.884;8.338;2023-04-01T08:42:31;98878.91;;;10.64;100.00
10881;BME280;5493;48.884;8.338;2023-04-01T08:45:19;98884.34;;;10.43;100.00
10881;BME280;5493;48.884;8.338;2023-04-01T08:48:04;98879.19;;;10.63;100.00
10881;BME280;5493;48.884;8.338;2023-04-01T08:51:08;98878.78;;;10.27;100.00
10881;BME280;5493;48.884;8.338;2023-04-01T08:54:07;98884.69;;;10.78;100.00
10881;BME280;5493;48.884;8.338;2023-04-01T08:56:46;98890.66;;;10.53;100.00
10881;BME280;5493;48.884;8.338;2023-04-01T08:59:27;98896.25;;;10.47;100.00
10881;BME280;5493;48.884;8.338;2023-04-01T09:05:20;98893.94;;;10.55;100.00
10881;BME280;5493;48.884;8.338;2023-04-01T09:08:00;98899.03;;;10.57;100.00
10881;BME280;5493;48.884;8.338;2023-04-01T09:10:52;98893.63;;;10.52;100.00
10881;BME280;5493;48.884;8.338;2023-04-01T09:13:40;98890.72;;;10.85;100.00
10881;BME280;5493;48.884;8.338;2023-04-01T09:16:24;98906.47;;;10.45;100.00
10881;BME280;5493;48.884;8.338;2023-04-01T09:19:10;98887.34;;;10.46;100.00
10881;BME280;5493;48.884;8.338;2023-04-01T09:21:57;98878.72;;;10.22;100.00
10881;BME280;5493;48.884;8.338;2023-04-01T09:24:51;98897.75;;;10.59;100.00
10881;BME280;5493;48.884;8.338;2023-04-01T09:27:34;98901.19;;;10.55;100.00
10881;BME280;5493;48.884;8.338;2023-04-01T09:30:33;98891.88;;;10.67;100.00
10881;BME280;5493;48.884;8.338;2023-04-01T09:36:20;98896.81;;;10.75;100.00
10881;BME280;5493;48.884;8.338;2023-04-01T09:38:56;98899.72;;;10.96;100.00
10881;BME280;5493;48.884;8.338;2023-04-01T09:41:31;98880.66;;;10.49;100.00
10881;BME280;5493;48.884;8.338;2023-04-01T09:44:02;98900.81;;;10.46;100.00
10881;BME280;5493;48.884;8.338;2023-04-01T09:46:44;98902.00;;;10.55;100.00
10881;BME280;5493;48.884;8.338;2023-04-01T09:49:42;98900.06;;;11.04;100.00
10881;BME280;5493;48.884;8.338;2023-04-01T09:52:20;98902.16;;;10.97;100.00
10881;BME280;5493;48.884;8.338;2023-04-01T10:01:30;98896.06;;;10.80;100.00
10881;BME280;5493;48.884;8.338;2023-04-01T10:04:37;98885.22;;;10.75;100.00
10881;BME280;5493;48.884;8.338;2023-04-01T10:10:27;98900.72;;;10.90;100.00
10881;BME280;5493;48.884;8.338;2023-04-01T10:13:25;98907.69;;;10.85;100.00
10881;BME280;5493;48.884;8.338;2023-04-01T10:16:03;98896.91;;;11.12;100.00
10881;BME280;5493;48.884;8.338;2023-04-01T10:19:07;98905.75;;;11.08;100.00
10881;BME280;5493;48.884;8.338;2023-04-01T10:25:19;98901.03;;;10.93;100.00
10881;BME280;5493;48.884;8.338;2023-04-01T10:28:16;98872.25;;;10.72;100.00
10881;BME280;5493;48.884;8.338;2023-04-01T10:31:14;98884.97;;;10.76;100.00
10881;BME280;5493;48.884;8.338;2023-04-01T10:36:52;98905.00;;;10.85;100.00
10881;BME280;5493;48.884;8.338;2023-04-01T10:39:38;98911.16;;;11.08;100.00
10881;BME280;5493;48.884;8.338;2023-04-01T10:45:38;98885.25;;;11.07;100.00
10881;BME280;5493;48.884;8.338;2023-04-01T10:48:23;98918.94;;;11.36;100.00
10881;BME280;5493;48.884;8.338;2023-04-01T10:51:38;98939.91;;;11.24;100.00
10881;BME280;5493;48.884;8.338;2023-04-01T10:54:19;98928.50;;;11.17;100.00
10881;BME280;5493;48.884;8.338;2023-04-01T10:56:51;98936.66;;;10.95;100.00
10881;BME280;5493;48.884;8.338;2023-04-01T10:59:57;98928.84;;;10.72;100.00
10881;BME280;5493;48.884;8.338;2023-04-01T11:12:21;98932.78;;;10.59;100.00
10881;BME280;5493;48.884;8.338;2023-04-01T11:15:22;98943.84;;;10.84;100.00
10881;BME280;5493;48.884;8.338;2023-04-01T11:18:06;98941.78;;;10.97;100.00
10881;BME280;5493;48.884;8.338;2023-04-01T11:21:07;98955.13;;;11.08;100.00
10881;BME280;5493;48.884;8.338;2023-04-01T11:23:50;98938.41;;;11.11;100.00
10881;BME280;5493;48.884;8.338;2023-04-01T11:26:27;98953.66;;;10.96;100.00
10881;BME280;5493;48.884;8.338;2023-04-01T11:29:18;98935.91;;;10.78;100.00
10881;BME280;5493;48.884;8.338;2023-04-01T11:31:57;98929.75;;;10.77;100.00
10881;BME280;5493;48.884;8.338;2023-04-01T11:34:47;98956.28;;;10.91;100.00
10881;BME280;5493;48.884;8.338;2023-04-01T11:37:24;98957.97;;;11.23;100.00
10881;BME280;5493;48.884;8.338;2023-04-01T11:39:59;98948.22;;;11.17;100.00
10881;BME280;5493;48.884;8.338;2023-04-01T11:42:35;98957.91;;;11.18;100.00
10881;BME280;5493;48.884;8.338;2023-04-01T11:45:16;98953.69;;;11.01;100.00
10881;BME280;5493;48.884;8.338;2023-04-01T11:47:54;98964.63;;;11.16;100.00
10881;BME280;5493;48.884;8.338;2023-04-01T11:50:32;98963.03;;;10.66;100.00
10881;BME280;5493;48.884;8.338;2023-04-01T11:53:30;98966.47;;;10.83;100.00
10881;BME280;5493;48.884;8.338;2023-04-01T11:56:09;98958.69;;;10.87;100.00
10881;BME280;5493;48.884;8.338;2023-04-01T11:58:58;98963.34;;;10.97;100.00
10881;BME280;5493;48.884;8.338;2023-04-01T12:01:39;98946.47;;;10.79;100.00
10881;BME280;5493;48.884;8.338;2023-04-01T12:04:44;98966.13;;;11.02;100.00
10881;BME280;5493;48.884;8.338;2023-04-01T12:07:21;98972.63;;;11.06;100.00
10881;BME280;5493;48.884;8.338;2023-04-01T12:09:58;98967.53;;;11.09;100.00
10881;BME280;5493;48.884;8.338;2023-04-01T12:12:36;98975.84;;;11.03;100.00
10881;BME280;5493;48.884;8.338;2023-04-01T12:15:16;98970.16;;;10.99;100.00
10881;BME280;5493;48.884;8.338;2023-04-01T12:17:50;98984.41;;;11.00;100.00
10881;BME280;5493;48.884;8.338;2023-04-01T12:20:36;98986.41;;;11.09;100.00
10881;BME280;5493;48.884;8.338;2023-04-01T12:23:15;98985.69;;;11.19;100.00
10881;BME280;5493;48.884;8.338;2023-04-01T12:26:00;98973.50;;;10.84;100.00
10881;BME280;5493;48.884;8.338;2023-04-01T12:28:41;98988.66;;;11.17;100.00
10881;BME280;5493;48.884;8.338;2023-04-01T12:31:31;98982.28;;;11.02;100.00
10881;BME280;5493;48.884;8.338;2023-04-01T12:34:19;98973.16;;;11.03;100.00
10881;BME280;5493;48.884;8.338;2023-04-01T12:37:03;98985.94;;;11.44;100.00
10881;BME280;5493;48.884;8.338;2023-04-01T12:39:47;98989.75;;;11.21;100.00
10881;BME280;5493;48.884;8.338;2023-04-01T12:42:33;98985.97;;;11.17;100.00
10881;BME280;5493;48.884;8.338;2023-04-01T12:45:15;98990.88;;;11.25;100.00
10881;BME280;5493;48.884;8.338;2023-04-01T12:48:10;98997.22;;;11.09;100.00
10881;BME280;5493;48.884;8.338;2023-04-01T12:54:24;98991.25;;;11.07;100.00
10881;BME280;5493;48.884;8.338;2023-04-01T12:57:07;99005.13;;;10.94;100.00
10881;BME280;5493;48.884;8.338;2023-04-01T12:59:58;99012.72;;;10.97;100.00
10881;BME280;5493;48.884;8.338;2023-04-01T13:02:38;99026.88;;;11.09;100.00
10881;BME280;5493;48.884;8.338;2023-04-01T13:05:25;99020.94;;;10.85;100.00
10881;BME280;5493;48.884;8.338;2023-04-01T13:08:10;99028.97;;;11.02;100.00
10881;BME280;5493;48.884;8.338;2023-04-01T13:11:02;99034.50;;;10.91;100.00
10881;BME280;5493;48.884;8.338;2023-04-01T13:16:24;99052.53;;;10.90;100.00
10881;BME280;5493;48.884;8.338;2023-04-01T13:18:59;99055.00;;;10.92;100.00
10881;BME280;5493;48.884;8.338;2023-04-01T13:21:42;99047.09;;;10.85;100.00
10881;BME280;5493;48.884;8.338;2023-04-01T13:27:05;99042.66;;;10.52;100.00
10881;BME280;5493;48.884;8.338;2023-04-01T13:29:40;99052.00;;;10.88;100.00
10881;BME280;5493;48.884;8.338;2023-04-01T13:32:27;99045.50;;;10.67;100.00
10881;BME280;5493;48.884;8.338;2023-04-01T13:35:08;99042.78;;;10.84;100.00
10881;BME280;5493;48.884;8.338;2023-04-01T13:37:50;99047.41;;;10.89;100.00
10881;BME280;5493;48.884;8.338;2023-04-01T13:40:33;99044.69;;;11.10;100.00
10881;BME280;5493;48.884;8.338;2023-04-01T13:43:04;99043.63;;;10.90;100.00
10881;BME280;5493;48.884;8.338;2023-04-01T13:45:46;99016.56;;;10.79;100.00
10881;BME280;5493;48.884;8.338;2023-04-01T13:51:13;99039.13;;;10.73;100.00
10881;BME280;5493;48.884;8.338;2023-04-01T13:54:00;99046.53;;;10.61;100.00
10881;BME280;5493;48.884;8.338;2023-04-01T13:56:41;99047.09;;;11.07;100.00
10881;BME280;5493;48.884;8.338;2023-04-01T14:02:44;99045.91;;;10.76;100.00
10881;BME280;5493;48.884;8.338;2023-04-01T14:05:32;99044.22;;;10.92;100.00
10881;BME280;5493;48.884;8.338;2023-04-01T14:08:10;99039.81;;;10.85;100.00
10881;BME280;5493;48.884;8.338;2023-04-01T14:10:44;99058.03;;;11.00;100.00
10881;BME280;5493;48.884;8.338;2023-04-01T14:13:18;99052.84;;;10.94;100.00
10881;BME280;5493;48.884;8.338;2023-04-01T14:16:23;99048.84;;;10.74;100.00
10881;BME280;5493;48.884;8.338;2023-04-01T14:19:03;99061.53;;;10.74;100.00
10881;BME280;5493;48.884;8.338;2023-04-01T14:21:37;99052.94;;;10.77;100.00
10881;BME280;5493;48.884;8.338;2023-04-01T14:24:20;99052.19;;;10.81;100.00
10881;BME280;5493;48.884;8.338;2023-04-01T14:27:11;99064.38;;;10.89;100.00
10881;BME280;5493;48.884;8.338;2023-04-01T14:29:53;99063.91;;;10.92;100.00
10881;BME280;5493;48.884;8.338;2023-04-01T14:32:32;99063.28;;;10.85;100.00
10881;BME280;5493;48.884;8.338;2023-04-01T14:35:25;99067.78;;;10.79;100.00
10881;BME280;5493;48.884;8.338;2023-04-01T14:44:09;99071.50;;;10.95;100.00